createdAt,value
2022-12-14T00:01:23.329Z,26.70
2022-12-14T00:02:45.476Z,22.90
2022-12-14T00:04:07.748Z,22.30
2022-12-14T00:05:29.812Z,25.57
2022-12-14T00:06:52.521Z,19.40
2022-12-14T00:08:15.980Z,26.40
2022-12-14T00:09:38.031Z,25.83
2022-12-14T00:11:00.140Z,23.03
2022-12-14T00:12:22.221Z,20.20
2022-12-14T00:13:44.448Z,21.73
2022-12-14T00:15:11.307Z,23.30
2022-12-14T00:16:35.186Z,23.87
2022-12-14T00:17:57.311Z,21.53
2022-12-14T00:19:19.373Z,26.07
2022-12-14T00:20:41.638Z,20.40
2022-12-14T00:22:03.728Z,22.97
2022-12-14T00:23:25.792Z,22.80
2022-12-14T00:24:47.875Z,24.33
2022-12-14T00:26:36.213Z,24.93
2022-12-14T00:27:58.725Z,25.43
2022-12-14T00:29:20.789Z,26.10
2022-12-14T00:30:42.886Z,22.63
2022-12-14T00:32:05.942Z,20.13
2022-12-14T00:33:28.071Z,24.17
2022-12-14T00:34:50.177Z,27.27
2022-12-14T00:36:13.044Z,32.77
2022-12-14T00:37:35.691Z,32.10
2022-12-14T00:38:57.875Z,21.27
2022-12-14T00:40:19.937Z,24.83
2022-12-14T00:41:42.071Z,27.80
2022-12-14T00:43:04.334Z,27.37
2022-12-14T00:44:26.380Z,25.70
2022-12-14T00:45:48.690Z,21.27
2022-12-14T00:47:10.770Z,25.83
2022-12-14T00:48:33.515Z,22.90
2022-12-14T00:49:55.548Z,24.77
2022-12-14T00:51:18.399Z,23.10
2022-12-14T00:52:40.428Z,21.30
2022-12-14T00:54:02.438Z,22.90
2022-12-14T00:55:24.465Z,23.97
2022-12-14T00:56:46.487Z,25.50
2022-12-14T00:58:10.456Z,25.70
2022-12-14T00:59:32.477Z,22.97
2022-12-14T01:01:02.452Z,25.10
2022-12-14T01:02:24.635Z,23.37
2022-12-14T01:03:47.032Z,29.93
2022-12-14T01:05:09.480Z,23.63
2022-12-14T01:06:31.509Z,25.43
2022-12-14T01:07:53.511Z,23.70
2022-12-14T01:09:16.567Z,23.13
2022-12-14T01:10:40.387Z,26.10
2022-12-14T01:12:02.422Z,26.87
2022-12-14T01:13:24.706Z,25.40
2022-12-14T01:14:48.759Z,27.37
2022-12-14T01:16:14.935Z,26.20
2022-12-14T01:17:37.014Z,23.90
2022-12-14T01:19:00.303Z,25.50
2022-12-14T01:20:22.393Z,20.97
2022-12-14T01:21:44.689Z,25.10
2022-12-14T01:23:07.055Z,31.40
2022-12-14T01:24:29.417Z,27.90
2022-12-14T01:25:51.421Z,29.00
2022-12-14T01:27:13.582Z,27.30
2022-12-14T01:28:36.187Z,31.40
2022-12-14T01:29:58.214Z,27.03
2022-12-14T01:31:22.933Z,30.73
2022-12-14T01:32:46.060Z,28.67
2022-12-14T01:34:08.317Z,30.10
2022-12-14T01:35:30.343Z,24.97
2022-12-14T01:36:52.395Z,29.37
2022-12-14T01:38:14.405Z,29.60
2022-12-14T01:39:36.462Z,32.00
2022-12-14T01:41:00.076Z,26.63
2022-12-14T01:42:22.372Z,24.40
2022-12-14T01:43:50.188Z,31.37
2022-12-14T01:45:19.389Z,25.67
2022-12-14T01:46:50.060Z,30.53
2022-12-14T01:48:14.014Z,29.27
2022-12-14T01:49:49.045Z,28.43
2022-12-14T01:51:11.133Z,26.50
2022-12-14T01:52:40.859Z,33.70
2022-12-14T01:54:07.286Z,28.67
2022-12-14T01:55:56.354Z,23.23
2022-12-14T01:57:25.789Z,27.37
2022-12-14T01:58:47.841Z,28.07
2022-12-14T02:00:13.191Z,29.40
2022-12-14T02:01:35.705Z,25.83
2022-12-14T02:03:09.215Z,27.60
2022-12-14T02:04:33.600Z,27.67
2022-12-14T02:06:02.120Z,29.70
2022-12-14T02:07:26.471Z,27.97
2022-12-14T02:08:52.370Z,29.10
2022-12-14T02:10:14.440Z,27.50
2022-12-14T02:12:00.514Z,30.80
2022-12-14T02:13:38.705Z,21.33
2022-12-14T02:15:02.443Z,31.50
2022-12-14T02:16:24.607Z,24.77
2022-12-14T02:17:48.262Z,24.30
2022-12-14T02:19:10.311Z,23.33
2022-12-14T02:20:41.200Z,23.33
2022-12-14T02:22:33.382Z,28.37
2022-12-14T02:24:14.220Z,23.40
2022-12-14T02:25:54.736Z,22.20
2022-12-14T02:28:06.246Z,27.07
2022-12-14T02:29:49.965Z,22.03
2022-12-14T02:31:33.712Z,27.30
2022-12-14T02:33:06.422Z,26.93
2022-12-14T02:35:05.453Z,21.03
2022-12-14T02:36:37.533Z,22.90
2022-12-14T02:38:27.230Z,27.47
2022-12-14T02:40:13.120Z,23.07
2022-12-14T02:41:54.493Z,30.07
2022-12-14T02:43:29.100Z,27.00
2022-12-14T02:45:14.052Z,27.07
2022-12-14T02:46:45.066Z,26.70
2022-12-14T02:48:26.506Z,22.10
2022-12-14T02:50:02.475Z,26.63
2022-12-14T02:51:50.183Z,25.93
2022-12-14T02:53:42.291Z,24.23
2022-12-14T02:55:12.207Z,30.80
2022-12-14T02:56:40.026Z,27.10
2022-12-14T02:58:17.280Z,22.30
2022-12-14T02:59:40.681Z,21.17
2022-12-14T03:01:03.891Z,20.00
2022-12-14T03:02:27.127Z,23.97
2022-12-14T03:03:49.641Z,21.13
2022-12-14T03:05:11.939Z,20.97
2022-12-14T03:06:34.064Z,22.80
2022-12-14T03:07:59.012Z,19.87
2022-12-14T03:09:21.065Z,21.17
2022-12-14T03:10:57.342Z,22.07
2022-12-14T03:12:20.945Z,22.03
2022-12-14T03:13:51.647Z,19.03
2022-12-14T03:15:16.423Z,25.53
2022-12-14T03:16:46.404Z,17.17
2022-12-14T03:18:12.354Z,19.33
2022-12-14T03:19:52.626Z,18.50
2022-12-14T03:21:19.229Z,17.77
2022-12-14T03:22:52.032Z,16.67
2022-12-14T03:24:24.070Z,17.40
2022-12-14T03:26:13.060Z,17.00
2022-12-14T03:27:40.475Z,23.67
2022-12-14T03:29:12.917Z,22.07
2022-12-14T03:30:59.284Z,17.93
2022-12-14T03:32:24.071Z,17.10
2022-12-14T03:33:48.975Z,26.53
2022-12-14T03:35:23.541Z,18.63
2022-12-14T03:37:02.760Z,21.40
2022-12-14T03:38:33.605Z,19.93
2022-12-14T03:39:56.137Z,17.10
2022-12-14T03:41:48.990Z,17.87
2022-12-14T03:43:18.343Z,18.13
2022-12-14T03:44:54.834Z,16.13
2022-12-14T03:46:42.921Z,14.63
2022-12-14T03:48:58.664Z,19.37
2022-12-14T03:50:52.427Z,17.23
2022-12-14T03:52:26.638Z,17.20
2022-12-14T03:54:26.829Z,16.53
2022-12-14T03:55:54.807Z,12.63
2022-12-14T03:57:19.597Z,16.03
2022-12-14T03:59:00.447Z,22.33
2022-12-14T04:00:24.750Z,16.50
2022-12-14T04:01:49.891Z,18.30
2022-12-14T04:03:38.056Z,15.07
2022-12-14T04:05:07.880Z,17.50
2022-12-14T04:06:38.710Z,19.30
2022-12-14T04:08:06.502Z,14.90
2022-12-14T04:09:52.043Z,17.00
2022-12-14T04:11:35.297Z,18.80
2022-12-14T04:13:22.739Z,17.30
2022-12-14T04:15:09.971Z,15.10
2022-12-14T04:16:57.016Z,16.23
2022-12-14T04:18:44.088Z,20.30
2022-12-14T04:20:26.157Z,34.07
2022-12-14T04:21:58.560Z,21.20
2022-12-14T04:23:48.541Z,18.30
2022-12-14T04:25:38.082Z,14.03
2022-12-14T04:27:05.425Z,18.93
2022-12-14T04:28:53.395Z,16.60
2022-12-14T04:30:15.863Z,18.80
2022-12-14T04:31:42.478Z,18.63
2022-12-14T04:33:30.797Z,14.73
2022-12-14T04:35:19.154Z,18.23
2022-12-14T04:36:44.765Z,16.63
2022-12-14T04:38:20.338Z,16.50
2022-12-14T04:39:49.651Z,15.07
2022-12-14T04:41:15.343Z,15.13
2022-12-14T04:42:47.427Z,15.80
2022-12-14T04:44:32.318Z,14.60
2022-12-14T04:46:08.031Z,18.00
2022-12-14T04:47:34.954Z,15.30
2022-12-14T04:49:13.132Z,15.00
2022-12-14T04:50:42.583Z,16.63
2022-12-14T04:52:28.513Z,16.43
2022-12-14T04:54:07.071Z,18.80
2022-12-14T04:55:42.770Z,15.37
2022-12-14T04:57:23.958Z,13.70
2022-12-14T04:58:46.218Z,15.93
2022-12-14T05:00:10.166Z,16.07
2022-12-14T05:01:49.068Z,14.37
2022-12-14T05:03:21.981Z,13.43
2022-12-14T05:05:16.602Z,16.40
2022-12-14T05:07:10.122Z,16.43
2022-12-14T05:08:40.270Z,16.20
2022-12-14T05:10:16.553Z,21.37
2022-12-14T05:11:53.962Z,17.90
2022-12-14T05:13:26.293Z,18.33
2022-12-14T05:15:10.158Z,17.63
2022-12-14T05:16:32.418Z,18.60
2022-12-14T05:17:54.928Z,18.20
2022-12-14T05:19:17.144Z,17.60
2022-12-14T05:20:39.211Z,20.33
2022-12-14T05:22:06.318Z,18.57
2022-12-14T05:23:28.760Z,22.10
2022-12-14T05:24:51.263Z,17.13
2022-12-14T05:26:13.273Z,19.37
2022-12-14T05:27:35.324Z,18.10
2022-12-14T05:28:57.476Z,17.40
2022-12-14T05:30:19.705Z,17.70
2022-12-14T05:31:41.854Z,16.73
2022-12-14T05:33:19.883Z,18.40
2022-12-14T05:34:42.029Z,15.70
2022-12-14T05:36:04.226Z,12.50
2022-12-14T05:37:26.258Z,17.93
2022-12-14T05:38:48.335Z,18.73
2022-12-14T05:40:11.168Z,21.80
2022-12-14T05:41:33.182Z,16.63
2022-12-14T05:43:05.324Z,17.17
2022-12-14T05:44:27.377Z,16.53
2022-12-14T05:45:49.476Z,15.20
2022-12-14T05:47:11.725Z,17.27
2022-12-14T05:48:35.123Z,16.07
2022-12-14T05:49:57.240Z,19.00
2022-12-14T05:51:19.296Z,19.13
2022-12-14T05:52:41.368Z,17.67
2022-12-14T05:54:03.705Z,17.33
2022-12-14T05:55:25.754Z,21.80
2022-12-14T05:56:47.777Z,15.67
2022-12-14T05:58:09.812Z,15.53
2022-12-14T05:59:31.854Z,18.43
2022-12-14T06:00:53.886Z,17.33
2022-12-14T06:02:16.013Z,13.33
2022-12-14T06:03:38.429Z,15.50
2022-12-14T06:05:00.576Z,19.90
2022-12-14T06:06:22.642Z,13.63
2022-12-14T06:07:44.658Z,18.37
2022-12-14T06:09:08.534Z,16.20
2022-12-14T06:10:30.595Z,20.07
2022-12-14T06:11:52.687Z,14.90
2022-12-14T06:13:14.746Z,19.20
2022-12-14T06:14:36.778Z,19.90
2022-12-14T06:16:20.009Z,16.67
2022-12-14T06:17:46.181Z,17.13
2022-12-14T06:19:08.744Z,19.63
2022-12-14T06:20:30.750Z,17.60
2022-12-14T06:21:52.787Z,18.70
2022-12-14T06:23:14.808Z,14.93
2022-12-14T06:24:36.814Z,17.93
2022-12-14T06:25:58.838Z,17.17
2022-12-14T06:27:20.896Z,17.70
2022-12-14T06:28:43.103Z,16.13
2022-12-14T06:30:05.710Z,20.43
2022-12-14T06:31:30.451Z,21.47
2022-12-14T06:32:52.568Z,16.33
2022-12-14T06:34:15.116Z,14.67
2022-12-14T06:35:37.142Z,19.67
2022-12-14T06:36:59.244Z,21.30
2022-12-14T06:38:21.953Z,19.63
2022-12-14T06:39:45.060Z,15.93
2022-12-14T06:41:14.734Z,20.93
2022-12-14T06:42:37.080Z,20.00
2022-12-14T06:44:07.267Z,16.60
2022-12-14T06:45:29.724Z,21.30
2022-12-14T06:46:51.858Z,14.63
2022-12-14T06:48:13.917Z,19.47
2022-12-14T06:49:35.928Z,15.83
2022-12-14T06:51:02.596Z,15.80
2022-12-14T06:52:26.939Z,21.07
2022-12-14T06:53:57.358Z,24.17
2022-12-14T06:55:19.414Z,15.20
2022-12-14T06:56:43.016Z,26.13
2022-12-14T06:58:05.085Z,15.00
2022-12-14T06:59:27.253Z,21.50
2022-12-14T07:00:49.274Z,15.57
2022-12-14T07:02:11.395Z,15.60
2022-12-14T07:03:34.333Z,18.43
2022-12-14T07:04:56.438Z,16.40
2022-12-14T07:06:18.481Z,16.27
2022-12-14T07:07:41.551Z,19.00
2022-12-14T07:09:04.889Z,19.13
2022-12-14T07:10:26.965Z,17.20
2022-12-14T07:11:51.383Z,17.97
2022-12-14T07:13:13.456Z,15.97
2022-12-14T07:14:35.573Z,19.03
2022-12-14T07:15:59.146Z,16.80
2022-12-14T07:17:21.890Z,21.90
2022-12-14T07:18:44.032Z,24.37
2022-12-14T07:20:07.339Z,15.50
2022-12-14T07:21:29.413Z,21.27
2022-12-14T07:22:51.501Z,15.57
2022-12-14T07:24:13.956Z,24.00
2022-12-14T07:25:36.052Z,16.53
2022-12-14T07:26:58.145Z,17.13
2022-12-14T07:28:20.570Z,17.90
2022-12-14T07:29:42.617Z,14.80
2022-12-14T07:31:08.148Z,17.83
2022-12-14T07:32:30.423Z,18.20
2022-12-14T07:33:54.322Z,24.03
2022-12-14T07:35:17.008Z,19.57
2022-12-14T07:36:39.344Z,27.40
2022-12-14T07:38:01.380Z,18.97
2022-12-14T07:39:23.433Z,17.33
2022-12-14T07:40:45.479Z,15.20
2022-12-14T07:42:07.892Z,19.90
2022-12-14T07:43:30.421Z,21.87
2022-12-14T07:44:52.629Z,24.87
2022-12-14T07:46:20.026Z,17.63
2022-12-14T07:47:42.800Z,18.20
2022-12-14T07:49:04.868Z,17.63
2022-12-14T07:50:27.073Z,17.00
2022-12-14T07:51:49.144Z,16.47
2022-12-14T07:53:11.227Z,18.90
2022-12-14T07:54:33.388Z,19.50
2022-12-14T07:55:55.459Z,17.20
2022-12-14T07:57:17.521Z,17.83
2022-12-14T07:58:40.120Z,21.70
2022-12-14T08:00:02.327Z,16.93
2022-12-14T08:01:27.694Z,17.40
2022-12-14T08:02:49.937Z,17.10
2022-12-14T08:04:15.633Z,20.57
2022-12-14T08:05:40.578Z,19.50
2022-12-14T08:07:02.597Z,18.20
2022-12-14T08:08:24.642Z,14.07
2022-12-14T08:09:47.548Z,18.03
2022-12-14T08:11:11.045Z,17.77
2022-12-14T08:12:33.129Z,15.53
2022-12-14T08:13:55.113Z,16.47
2022-12-14T08:15:17.176Z,19.13
2022-12-14T08:16:39.512Z,17.07
2022-12-14T08:18:01.517Z,13.93
2022-12-14T08:19:23.509Z,18.50
2022-12-14T08:20:53.114Z,18.40
2022-12-14T08:22:15.489Z,17.60
2022-12-14T08:23:37.752Z,15.47
2022-12-14T08:24:59.781Z,17.30
2022-12-14T08:26:23.679Z,19.63
2022-12-14T08:27:46.268Z,18.50
2022-12-14T08:29:09.235Z,17.67
2022-12-14T08:30:31.228Z,17.17
2022-12-14T08:31:55.984Z,18.83
2022-12-14T08:33:19.260Z,17.53
2022-12-14T08:34:41.327Z,19.53
2022-12-14T08:36:15.281Z,13.47
2022-12-14T08:37:37.321Z,18.20
2022-12-14T08:39:01.355Z,18.53
2022-12-14T08:40:23.389Z,17.90
2022-12-14T08:41:46.254Z,18.53
2022-12-14T08:43:09.497Z,17.80
2022-12-14T08:44:31.522Z,19.70
2022-12-14T08:45:55.665Z,17.03
2022-12-14T08:47:17.681Z,14.40
2022-12-14T08:48:39.687Z,16.53
2022-12-14T08:50:01.661Z,14.47
2022-12-14T08:51:26.017Z,18.37
2022-12-14T08:52:48.530Z,16.10
2022-12-14T08:54:11.202Z,16.97
2022-12-14T08:55:38.232Z,18.20
2022-12-14T08:57:01.009Z,17.10
2022-12-14T08:58:23.025Z,13.27
2022-12-14T09:00:01.397Z,15.53
2022-12-14T09:01:32.675Z,17.50
2022-12-14T09:02:55.773Z,21.97
2022-12-14T09:04:17.821Z,19.23
2022-12-14T09:05:39.961Z,17.87
2022-12-14T09:07:02.314Z,15.83
2022-12-14T09:08:24.396Z,14.73
2022-12-14T09:09:46.420Z,19.60
2022-12-14T09:11:12.651Z,18.17
2022-12-14T09:12:36.143Z,17.40
2022-12-14T09:13:58.231Z,17.13
2022-12-14T09:15:20.319Z,24.83
2022-12-14T09:16:42.547Z,20.07
2022-12-14T09:18:05.269Z,19.73
2022-12-14T09:19:27.861Z,15.70
2022-12-14T09:20:49.978Z,18.43
2022-12-14T09:22:13.363Z,17.20
2022-12-14T09:23:36.610Z,16.70
2022-12-14T09:24:58.668Z,17.53
2022-12-14T09:26:22.818Z,16.43
2022-12-14T09:27:44.898Z,15.67
2022-12-14T09:29:07.018Z,18.50
2022-12-14T09:30:29.104Z,17.17
2022-12-14T09:31:51.169Z,14.93
2022-12-14T09:33:13.254Z,19.50
2022-12-14T09:34:35.349Z,15.50
2022-12-14T09:36:21.353Z,20.37
2022-12-14T09:37:43.451Z,21.30
2022-12-14T09:39:05.512Z,20.17
2022-12-14T09:40:31.324Z,23.30
2022-12-14T09:42:21.039Z,14.07
2022-12-14T09:43:48.000Z,17.83
2022-12-14T09:45:17.285Z,16.40
2022-12-14T09:46:52.042Z,19.20
2022-12-14T09:48:20.709Z,14.47
2022-12-14T09:49:56.940Z,15.23
2022-12-14T09:51:21.948Z,17.47
2022-12-14T09:52:56.742Z,17.70
2022-12-14T09:54:26.682Z,18.90
2022-12-14T09:55:51.468Z,18.33
2022-12-14T09:57:30.387Z,18.63
2022-12-14T09:58:57.934Z,15.80
2022-12-14T10:00:20.388Z,17.93
2022-12-14T10:02:28.980Z,18.57
2022-12-14T10:04:01.555Z,18.20
2022-12-14T10:05:53.698Z,19.10
2022-12-14T10:07:34.264Z,15.60
2022-12-14T10:09:05.638Z,15.63
2022-12-14T10:11:01.244Z,17.63
2022-12-14T10:13:05.582Z,15.80
2022-12-14T10:14:56.892Z,15.47
2022-12-14T10:16:51.761Z,14.97
2022-12-14T10:18:58.777Z,17.10
2022-12-14T10:20:23.458Z,16.00
2022-12-14T10:21:47.714Z,17.17
2022-12-14T10:23:18.176Z,20.80
2022-12-14T10:24:52.415Z,21.17
2022-12-14T10:26:18.810Z,17.20
2022-12-14T10:28:09.652Z,16.73
2022-12-14T10:29:39.696Z,17.80
2022-12-14T10:31:02.593Z,18.23
2022-12-14T10:32:39.481Z,18.00
2022-12-14T10:34:15.594Z,14.20
2022-12-14T10:35:55.062Z,17.40
2022-12-14T10:37:25.475Z,18.57
2022-12-14T10:38:53.507Z,20.20
2022-12-14T10:40:36.947Z,19.10
2022-12-14T10:42:04.468Z,16.20
2022-12-14T10:43:54.454Z,19.53
2022-12-14T10:45:40.326Z,19.77
2022-12-14T10:47:09.981Z,16.43
2022-12-14T10:48:45.242Z,17.73
2022-12-14T10:50:16.956Z,20.00
2022-12-14T10:52:05.484Z,17.60
2022-12-14T10:53:41.763Z,16.63
2022-12-14T10:55:29.710Z,16.10
2022-12-14T10:56:51.972Z,19.63
2022-12-14T10:58:14.095Z,17.00
2022-12-14T10:59:44.573Z,16.67
2022-12-14T11:01:15.649Z,17.00
2022-12-14T11:02:42.549Z,14.63
2022-12-14T11:04:07.137Z,20.07
2022-12-14T11:05:41.613Z,19.67
2022-12-14T11:07:15.851Z,16.40
2022-12-14T11:08:49.028Z,19.07
2022-12-14T11:10:21.343Z,19.90
2022-12-14T11:11:45.060Z,22.13
2022-12-14T11:13:17.197Z,16.30
2022-12-14T11:15:01.308Z,16.50
2022-12-14T11:16:36.584Z,18.07
2022-12-14T11:18:24.063Z,18.43
2022-12-14T11:20:08.659Z,18.60
2022-12-14T11:21:37.408Z,17.17
2022-12-14T11:23:09.078Z,19.77
2022-12-14T11:24:31.390Z,15.80
2022-12-14T11:26:03.757Z,19.40
2022-12-14T11:27:25.870Z,21.97
2022-12-14T11:28:53.232Z,16.10
2022-12-14T11:30:16.706Z,20.40
2022-12-14T11:31:44.125Z,17.47
2022-12-14T11:33:06.368Z,17.50
2022-12-14T11:34:39.032Z,19.50
2022-12-14T11:36:01.310Z,18.70
2022-12-14T11:37:31.512Z,14.90
2022-12-14T11:39:15.252Z,17.50
2022-12-14T11:40:38.087Z,16.10
2022-12-14T11:42:02.392Z,16.03
2022-12-14T11:43:32.204Z,21.80
2022-12-14T11:44:54.889Z,16.93
2022-12-14T11:46:18.407Z,16.83
2022-12-14T11:47:40.723Z,16.67
2022-12-14T11:49:02.776Z,16.50
2022-12-14T11:50:25.932Z,19.03
2022-12-14T11:52:06.122Z,20.07
2022-12-14T11:53:28.230Z,20.27
2022-12-14T11:54:54.245Z,14.67
2022-12-14T11:56:18.053Z,19.90
2022-12-14T11:58:00.084Z,22.80
2022-12-14T11:59:24.808Z,18.00
2022-12-14T12:00:52.491Z,16.17
2022-12-14T12:02:28.240Z,17.10
2022-12-14T12:03:53.645Z,16.43
2022-12-14T12:05:18.845Z,20.40
2022-12-14T12:06:42.198Z,14.17
2022-12-14T12:08:07.320Z,16.67
2022-12-14T12:09:31.387Z,20.07
2022-12-14T12:11:01.945Z,20.80
2022-12-14T12:12:24.270Z,16.03
2022-12-14T12:13:50.908Z,18.80
2022-12-14T12:15:19.706Z,20.43
2022-12-14T12:16:44.304Z,21.90
2022-12-14T12:18:29.545Z,18.33
2022-12-14T12:19:52.495Z,17.07
2022-12-14T12:21:30.040Z,20.07
2022-12-14T12:22:57.877Z,18.80
2022-12-14T12:24:36.761Z,17.00
2022-12-14T12:26:17.652Z,18.30
2022-12-14T12:27:40.036Z,18.07
2022-12-14T12:29:26.542Z,17.57
2022-12-14T12:30:53.133Z,15.93
2022-12-14T12:32:21.295Z,18.07
2022-12-14T12:34:15.062Z,18.37
2022-12-14T12:35:42.035Z,20.60
2022-12-14T12:37:28.453Z,21.60
2022-12-14T12:39:12.697Z,16.10
2022-12-14T12:40:41.838Z,15.33
2022-12-14T12:42:31.346Z,19.83
2022-12-14T12:43:54.412Z,21.23
2022-12-14T12:45:36.411Z,20.17
2022-12-14T12:47:25.564Z,16.53
2022-12-14T12:49:00.940Z,16.50
2022-12-14T12:50:26.774Z,16.60
2022-12-14T12:52:02.725Z,13.17
2022-12-14T12:53:28.338Z,20.57
2022-12-14T12:55:02.066Z,16.87
2022-12-14T12:56:48.209Z,16.90
2022-12-14T12:58:30.015Z,19.23
2022-12-14T12:59:55.678Z,19.10
2022-12-14T13:01:32.025Z,19.73
2022-12-14T13:03:18.967Z,16.83
2022-12-14T13:04:44.646Z,18.43
2022-12-14T13:06:21.840Z,20.13
2022-12-14T13:07:52.836Z,21.07
2022-12-14T13:09:32.947Z,18.10
2022-12-14T13:11:25.203Z,18.90
2022-12-14T13:12:48.302Z,19.83
2022-12-14T13:15:00.996Z,15.13
2022-12-14T13:16:31.771Z,18.30
2022-12-14T13:18:49.304Z,18.83
2022-12-14T13:20:31.770Z,18.90
2022-12-14T13:21:56.304Z,18.40
2022-12-14T13:25:34.483Z,17.03
2022-12-14T13:27:17.763Z,16.77
2022-12-14T13:28:48.980Z,18.93
2022-12-14T13:30:24.531Z,19.67
2022-12-14T13:32:26.280Z,18.43
2022-12-14T13:34:14.847Z,16.40
2022-12-14T13:35:44.455Z,18.90
2022-12-14T13:37:47.870Z,17.17
2022-12-14T13:39:45.383Z,25.53
2022-12-14T13:41:47.110Z,15.77
2022-12-14T13:43:27.120Z,17.03
2022-12-14T13:45:04.272Z,17.17
2022-12-14T13:46:29.367Z,15.00
2022-12-14T13:47:55.275Z,16.37
2022-12-14T13:49:21.812Z,20.87
2022-12-14T13:50:57.491Z,18.27
2022-12-14T13:52:41.425Z,19.00
2022-12-14T13:54:18.419Z,18.20
2022-12-14T13:56:01.298Z,19.87
2022-12-14T13:57:25.251Z,23.50
2022-12-14T13:58:49.486Z,16.80
2022-12-14T14:00:50.305Z,15.40
2022-12-14T14:02:27.789Z,17.93
2022-12-14T14:03:52.414Z,20.57
2022-12-14T14:05:18.794Z,15.70
2022-12-14T14:06:41.814Z,17.93
2022-12-14T14:08:33.285Z,16.43
2022-12-14T14:10:01.861Z,20.03
2022-12-14T14:11:41.950Z,20.02
2022-12-14T14:13:27.010Z,17.73
2022-12-14T14:15:01.093Z,16.77
2022-12-14T14:16:32.701Z,15.97
2022-12-14T14:18:01.652Z,16.33
2022-12-14T14:19:28.599Z,22.70
2022-12-14T14:21:12.165Z,17.73
2022-12-14T14:22:34.234Z,20.63
2022-12-14T14:24:16.814Z,22.27
2022-12-14T14:25:42.909Z,22.03
2022-12-14T14:27:08.435Z,20.70
2022-12-14T14:28:30.880Z,17.77
2022-12-14T14:29:54.562Z,22.80
2022-12-14T14:31:16.739Z,18.20
2022-12-14T14:32:42.054Z,17.70
2022-12-14T14:34:05.335Z,18.57
2022-12-14T14:35:45.495Z,15.87
2022-12-14T14:37:20.529Z,17.67
2022-12-14T14:38:42.960Z,17.20
2022-12-14T14:40:23.490Z,19.23
2022-12-14T14:41:52.564Z,22.90
2022-12-14T14:43:23.727Z,27.90
2022-12-14T14:44:55.462Z,23.87
2022-12-14T14:46:22.740Z,18.20
2022-12-14T14:47:55.937Z,20.03
2022-12-14T14:49:22.978Z,19.33
2022-12-14T14:50:48.441Z,17.47
2022-12-14T14:52:47.430Z,18.37
2022-12-14T14:55:06.578Z,21.37
2022-12-14T14:56:21.093Z,21.63
2022-12-14T14:57:57.135Z,20.33
2022-12-14T14:59:19.320Z,21.90
2022-12-14T15:01:12.121Z,19.50
2022-12-14T15:02:41.429Z,17.03
2022-12-14T15:04:23.415Z,19.13
2022-12-14T15:05:46.431Z,21.80
2022-12-14T15:07:15.800Z,22.27
2022-12-14T15:08:40.708Z,23.20
2022-12-14T15:10:24.615Z,21.30
2022-12-14T15:11:56.733Z,17.93
2022-12-14T15:13:29.823Z,19.47
2022-12-14T15:14:56.370Z,18.50
2022-12-14T15:16:24.231Z,22.40
2022-12-14T15:17:46.833Z,20.07
2022-12-14T15:19:25.018Z,19.70
2022-12-14T15:20:56.851Z,22.20
2022-12-14T15:22:25.093Z,16.93
2022-12-14T15:23:51.443Z,18.70
2022-12-14T15:25:23.215Z,22.77
2022-12-14T15:26:45.474Z,18.37
2022-12-14T15:28:08.157Z,20.17
2022-12-14T15:29:31.595Z,25.13
2022-12-14T15:30:55.121Z,18.97
2022-12-14T15:32:20.795Z,17.00
2022-12-14T15:33:47.778Z,17.37
2022-12-14T15:35:18.069Z,20.27
2022-12-14T15:36:42.533Z,16.73
2022-12-14T15:38:06.807Z,21.50
2022-12-14T15:39:38.237Z,18.10
2022-12-14T15:41:15.088Z,16.60
2022-12-14T15:42:55.742Z,15.07
2022-12-14T15:44:22.689Z,20.03
2022-12-14T15:45:48.550Z,23.37
2022-12-14T15:47:31.207Z,20.27
2022-12-14T15:49:03.606Z,20.77
2022-12-14T15:50:29.805Z,23.07
2022-12-14T15:51:52.277Z,18.23
2022-12-14T15:53:21.894Z,23.93
2022-12-14T15:54:44.894Z,24.10
2022-12-14T15:56:25.612Z,18.67
2022-12-14T15:57:47.690Z,23.30
2022-12-14T15:59:30.735Z,19.93
2022-12-14T16:00:55.162Z,21.93
2022-12-14T16:02:33.004Z,22.87
2022-12-14T16:03:59.284Z,26.30
2022-12-14T16:05:22.415Z,18.33
2022-12-14T16:06:53.412Z,20.23
2022-12-14T16:08:16.275Z,17.83
2022-12-14T16:09:53.170Z,22.38
2022-12-14T16:11:33.187Z,24.13
2022-12-14T16:13:01.628Z,26.30
2022-12-14T16:14:35.185Z,19.37
2022-12-14T16:15:59.952Z,20.27
2022-12-14T16:17:32.574Z,20.38
2022-12-14T16:19:08.630Z,21.83
2022-12-14T16:20:38.309Z,22.73
2022-12-14T16:22:10.048Z,18.03
2022-12-14T16:23:37.945Z,20.20
2022-12-14T16:25:16.779Z,21.30
2022-12-14T16:26:39.138Z,21.17
2022-12-14T16:28:25.743Z,24.10
2022-12-14T16:30:18.541Z,20.00
2022-12-14T16:31:40.940Z,26.10
2022-12-14T16:33:20.617Z,24.63
2022-12-14T16:34:48.017Z,28.57
2022-12-14T16:36:24.249Z,23.07
2022-12-14T16:37:49.003Z,17.30
2022-12-14T16:39:20.991Z,20.70
2022-12-14T16:40:54.195Z,21.70
2022-12-14T16:42:24.929Z,19.63
2022-12-14T16:43:58.982Z,22.77
2022-12-14T16:45:37.580Z,24.03
2022-12-14T16:47:28.596Z,24.30
2022-12-14T16:49:29.356Z,22.90
2022-12-14T16:50:58.110Z,21.10
2022-12-14T16:52:33.251Z,23.97
2022-12-14T16:53:58.510Z,25.03
2022-12-14T16:55:26.256Z,21.80
2022-12-14T16:56:52.775Z,27.57
2022-12-14T16:58:17.807Z,24.60
2022-12-14T16:59:41.961Z,22.00
2022-12-14T17:01:06.693Z,19.67
2022-12-14T17:02:34.185Z,26.53
2022-12-14T17:04:05.151Z,25.50
2022-12-14T17:05:40.806Z,26.13
2022-12-14T17:07:03.907Z,23.20
2022-12-14T17:08:26.339Z,29.40
2022-12-14T17:09:48.456Z,23.13
2022-12-14T17:11:12.790Z,24.47
2022-12-14T17:12:36.412Z,26.92
2022-12-14T17:13:58.470Z,26.30
2022-12-14T17:15:23.064Z,28.50
2022-12-14T17:16:52.978Z,28.00
2022-12-14T17:18:15.146Z,23.83
2022-12-14T17:19:39.538Z,24.67
2022-12-14T17:21:02.080Z,26.73
2022-12-14T17:22:30.087Z,31.97
2022-12-14T17:23:52.797Z,27.13
2022-12-14T17:25:15.163Z,24.40
2022-12-14T17:26:38.967Z,24.63
2022-12-14T17:28:01.523Z,35.90
2022-12-14T17:29:29.248Z,35.17
2022-12-14T17:30:56.214Z,38.93
2022-12-14T17:32:19.925Z,32.63
2022-12-14T17:33:43.952Z,29.10
2022-12-14T17:35:09.043Z,27.03
2022-12-14T17:36:32.197Z,30.40
2022-12-14T17:37:55.262Z,31.60
2022-12-14T17:39:18.636Z,29.33
2022-12-14T17:40:42.565Z,27.10
2022-12-14T17:42:06.414Z,37.67
2022-12-14T17:43:31.480Z,28.33
2022-12-14T17:45:00.654Z,27.23
2022-12-14T17:46:23.651Z,27.00
2022-12-14T17:47:45.832Z,22.57
2022-12-14T17:49:12.316Z,27.43
2022-12-14T17:50:34.834Z,28.67
2022-12-14T17:51:57.010Z,24.80
2022-12-14T17:53:26.325Z,24.20
2022-12-14T17:54:48.817Z,23.57
2022-12-14T17:56:12.067Z,27.43
2022-12-14T17:57:34.317Z,26.07
2022-12-14T17:58:56.468Z,30.13
2022-12-14T18:00:40.551Z,31.20
2022-12-14T18:02:03.386Z,35.27
2022-12-14T18:03:26.777Z,37.50
2022-12-14T18:04:50.628Z,28.73
2022-12-14T18:06:17.697Z,26.43
2022-12-14T18:07:39.917Z,29.40
2022-12-14T18:09:02.890Z,26.83
2022-12-14T18:10:26.026Z,28.63
2022-12-14T18:12:21.047Z,26.60
2022-12-14T18:13:35.062Z,26.03
2022-12-14T18:14:57.373Z,23.10
2022-12-14T18:16:21.444Z,27.60
2022-12-14T18:17:44.800Z,25.97
2022-12-14T18:19:11.947Z,30.53
2022-12-14T18:20:36.958Z,29.83
2022-12-14T18:22:01.481Z,24.70
2022-12-14T18:23:25.388Z,24.43
2022-12-14T18:24:49.136Z,25.03
2022-12-14T18:26:12.909Z,21.60
2022-12-14T18:27:36.308Z,23.37
2022-12-14T18:28:58.474Z,21.00
2022-12-14T18:30:21.039Z,24.70
2022-12-14T18:31:43.908Z,23.37
2022-12-14T18:33:16.672Z,28.00
2022-12-14T18:34:40.010Z,24.03
2022-12-14T18:36:02.172Z,20.83
2022-12-14T18:37:28.406Z,24.30
2022-12-14T18:38:55.909Z,23.90
2022-12-14T18:40:21.287Z,26.77
2022-12-14T18:41:43.604Z,27.17
2022-12-14T18:43:06.093Z,28.33
2022-12-14T18:44:28.280Z,27.50
2022-12-14T18:45:52.784Z,30.77
2022-12-14T18:47:40.539Z,29.83
2022-12-14T18:48:57.189Z,27.50
2022-12-14T18:50:27.212Z,24.97
2022-12-14T18:51:49.519Z,26.97
2022-12-14T18:53:17.088Z,31.77
2022-12-14T18:54:40.285Z,27.33
2022-12-14T18:56:03.763Z,38.37
2022-12-14T18:57:27.006Z,34.03
2022-12-14T18:58:49.529Z,33.23
2022-12-14T19:00:14.914Z,39.40
2022-12-14T19:01:39.616Z,28.43
2022-12-14T19:03:04.234Z,34.47
2022-12-14T19:04:26.588Z,37.47
2022-12-14T19:05:49.046Z,29.77
2022-12-14T19:07:11.244Z,35.40
2022-12-14T19:08:33.480Z,33.50
2022-12-14T19:09:56.261Z,35.37
2022-12-14T19:11:32.489Z,28.90
2022-12-14T19:12:55.478Z,33.67